sensor_id;sensor_type;location;lat;lon;timestamp;P1;durP1;ratioP1;P2;durP2;ratioP2
29280;SDS011;25048;49.590;11.026;2023-10-08T00:11:17;15.38;;;4.90;;
29280;SDS011;25048;49.590;11.026;2023-10-08T00:13:46;9.30;;;5.25;;
29280;SDS011;25048;49.590;11.026;2023-10-08T00:16:14;6.87;;;4.00;;
29280;SDS011;25048;49.590;11.026;2023-10-08T00:18:44;6.83;;;3.55;;
29280;SDS011;25048;49.590;11.026;2023-10-08T00:21:15;7.70;;;4.17;;
29280;SDS011;25048;49.590;11.026;2023-10-08T00:23:45;14.33;;;4.58;;
29280;SDS011;25048;49.590;11.026;2023-10-08T00:26:18;6.80;;;3.77;;
29280;SDS011;25048;49.590;11.026;2023-10-08T00:28:48;6.95;;;3.80;;
29280;SDS011;25048;49.590;11.026;2023-10-08T00:31:17;6.15;;;3.65;;
29280;SDS011;25048;49.590;11.026;2023-10-08T00:33:45;9.75;;;3.67;;
29280;SDS011;25048;49.590;11.026;2023-10-08T00:36:12;7.40;;;3.60;;
29280;SDS011;25048;49.590;11.026;2023-10-08T00:38:46;8.45;;;3.65;;
29280;SDS011;25048;49.590;11.026;2023-10-08T00:41:18;8.28;;;3.95;;
29280;SDS011;25048;49.590;11.026;2023-10-08T00:43:48;8.08;;;3.72;;
29280;SDS011;25048;49.590;11.026;2023-10-08T00:46:17;8.40;;;3.77;;
29280;SDS011;25048;49.590;11.026;2023-10-08T00:48:52;8.65;;;4.00;;
29280;SDS011;25048;49.590;11.026;2023-10-08T00:51:21;7.50;;;3.90;;
29280;SDS011;25048;49.590;11.026;2023-10-08T00:53:59;7.80;;;3.90;;
29280;SDS011;25048;49.590;11.026;2023-10-08T00:56:31;8.28;;;4.00;;
29280;SDS011;25048;49.590;11.026;2023-10-08T00:59:13;9.68;;;4.78;;
29280;SDS011;25048;49.590;11.026;2023-10-08T01:01:42;7.95;;;4.22;;
29280;SDS011;25048;49.590;11.026;2023-10-08T01:04:16;6.40;;;3.72;;
29280;SDS011;25048;49.590;11.026;2023-10-08T01:06:46;8.78;;;4.58;;
29280;SDS011;25048;49.590;11.026;2023-10-08T01:09:15;10.18;;;4.17;;
29280;SDS011;25048;49.590;11.026;2023-10-08T01:12:06;9.35;;;4.20;;
29280;SDS011;25048;49.590;11.026;2023-10-08T01:14:36;6.47;;;3.75;;
29280;SDS011;25048;49.590;11.026;2023-10-08T01:17:03;8.13;;;3.95;;
29280;SDS011;25048;49.590;11.026;2023-10-08T01:19:32;9.98;;;4.10;;
29280;SDS011;25048;49.590;11.026;2023-10-08T01:22:04;9.73;;;3.80;;
29280;SDS011;25048;49.590;11.026;2023-10-08T01:24:33;11.08;;;4.47;;
29280;SDS011;25048;49.590;11.026;2023-10-08T01:27:01;8.50;;;4.17;;
29280;SDS011;25048;49.590;11.026;2023-10-08T01:29:33;7.83;;;4.00;;
29280;SDS011;25048;49.590;11.026;2023-10-08T01:32:02;7.67;;;3.62;;
29280;SDS011;25048;49.590;11.026;2023-10-08T01:34:31;6.40;;;3.67;;
29280;SDS011;25048;49.590;11.026;2023-10-08T01:37:00;10.98;;;4.03;;
29280;SDS011;25048;49.590;11.026;2023-10-08T01:39:29;8.75;;;3.47;;
29280;SDS011;25048;49.590;11.026;2023-10-08T01:41:58;7.37;;;3.92;;
29280;SDS011;25048;49.590;11.026;2023-10-08T01:44:25;7.62;;;4.03;;
29280;SDS011;25048;49.590;11.026;2023-10-08T01:46:54;8.23;;;3.80;;
29280;SDS011;25048;49.590;11.026;2023-10-08T01:49:24;5.40;;;3.17;;
29280;SDS011;25048;49.590;11.026;2023-10-08T01:51:53;8.88;;;4.00;;
29280;SDS011;25048;49.590;11.026;2023-10-08T01:54:20;8.43;;;3.92;;
29280;SDS011;25048;49.590;11.026;2023-10-08T01:56:50;7.10;;;3.40;;
29280;SDS011;25048;49.590;11.026;2023-10-08T01:59:17;10.32;;;4.15;;
29280;SDS011;25048;49.590;11.026;2023-10-08T02:01:45;6.22;;;3.80;;
29280;SDS011;25048;49.590;11.026;2023-10-08T02:04:13;8.65;;;3.80;;
29280;SDS011;25048;49.590;11.026;2023-10-08T02:06:42;8.48;;;3.62;;
29280;SDS011;25048;49.590;11.026;2023-10-08T02:09:11;5.80;;;3.52;;
29280;SDS011;25048;49.590;11.026;2023-10-08T02:11:43;8.58;;;3.60;;
29280;SDS011;25048;49.590;11.026;2023-10-08T02:14:14;8.20;;;3.40;;
29280;SDS011;25048;49.590;11.026;2023-10-08T02:16:43;8.75;;;3.62;;
29280;SDS011;25048;49.590;11.026;2023-10-08T02:19:10;9.43;;;3.55;;
29280;SDS011;25048;49.590;11.026;2023-10-08T02:21:38;9.83;;;6.03;;
29280;SDS011;25048;49.590;11.026;2023-10-08T02:24:07;19.07;;;12.78;;
29280;SDS011;25048;49.590;11.026;2023-10-08T02:26:37;19.05;;;12.88;;
29280;SDS011;25048;49.590;11.026;2023-10-08T02:29:08;22.32;;;15.90;;
29280;SDS011;25048;49.590;11.026;2023-10-08T02:31:39;20.43;;;12.63;;
29280;SDS011;25048;49.590;11.026;2023-10-08T02:34:07;17.70;;;13.40;;
29280;SDS011;25048;49.590;11.026;2023-10-08T02:36:35;32.10;;;19.98;;
29280;SDS011;25048;49.590;11.026;2023-10-08T02:39:03;34.55;;;24.40;;
29280;SDS011;25048;49.590;11.026;2023-10-08T02:41:42;47.35;;;33.70;;
29280;SDS011;25048;49.590;11.026;2023-10-08T02:44:13;46.37;;;35.55;;
29280;SDS011;25048;49.590;11.026;2023-10-08T02:46:47;62.30;;;46.08;;
29280;SDS011;25048;49.590;11.026;2023-10-08T02:49:17;57.30;;;41.42;;
29280;SDS011;25048;49.590;11.026;2023-10-08T02:51:53;71.62;;;54.42;;
29280;SDS011;25048;49.590;11.026;2023-10-08T02:54:21;65.78;;;49.60;;
29280;SDS011;25048;49.590;11.026;2023-10-08T02:56:52;53.92;;;40.35;;
29280;SDS011;25048;49.590;11.026;2023-10-08T02:59:28;57.45;;;41.40;;
29280;SDS011;25048;49.590;11.026;2023-10-08T03:01:58;29.92;;;21.17;;
29280;SDS011;25048;49.590;11.026;2023-10-08T03:04:25;27.02;;;16.45;;
29280;SDS011;25048;49.590;11.026;2023-10-08T03:06:53;18.80;;;11.28;;
29280;SDS011;25048;49.590;11.026;2023-10-08T03:09:21;14.98;;;8.83;;
29280;SDS011;25048;49.590;11.026;2023-10-08T03:11:51;13.72;;;7.95;;
29280;SDS011;25048;49.590;11.026;2023-10-08T03:14:19;15.35;;;6.50;;
29280;SDS011;25048;49.590;11.026;2023-10-08T03:16:53;15.40;;;5.90;;
29280;SDS011;25048;49.590;11.026;2023-10-08T03:19:23;7.60;;;4.58;;
29280;SDS011;25048;49.590;11.026;2023-10-08T03:21:50;10.90;;;4.42;;
29280;SDS011;25048;49.590;11.026;2023-10-08T03:24:19;11.00;;;5.35;;
29280;SDS011;25048;49.590;11.026;2023-10-08T03:26:57;10.05;;;5.53;;
29280;SDS011;25048;49.590;11.026;2023-10-08T03:29:45;14.38;;;7.20;;
29280;SDS011;25048;49.590;11.026;2023-10-08T03:32:14;11.33;;;5.72;;
29280;SDS011;25048;49.590;11.026;2023-10-08T03:34:45;15.55;;;6.58;;
29280;SDS011;25048;49.590;11.026;2023-10-08T03:37:14;8.85;;;4.65;;
29280;SDS011;25048;49.590;11.026;2023-10-08T03:39:51;7.50;;;4.83;;
29280;SDS011;25048;49.590;11.026;2023-10-08T03:42:20;9.53;;;5.05;;
29280;SDS011;25048;49.590;11.026;2023-10-08T03:44:52;9.70;;;4.40;;
29280;SDS011;25048;49.590;11.026;2023-10-08T03:47:22;7.60;;;4.20;;
29280;SDS011;25048;49.590;11.026;2023-10-08T03:49:52;6.65;;;4.08;;
29280;SDS011;25048;49.590;11.026;2023-10-08T03:52:20;7.30;;;3.85;;
29280;SDS011;25048;49.590;11.026;2023-10-08T03:54:49;6.80;;;3.50;;
29280;SDS011;25048;49.590;11.026;2023-10-08T03:57:35;9.18;;;3.72;;
29280;SDS011;25048;49.590;11.026;2023-10-08T04:00:09;6.67;;;3.92;;
29280;SDS011;25048;49.590;11.026;2023-10-08T04:02:39;8.50;;;4.10;;
29280;SDS011;25048;49.590;11.026;2023-10-08T04:05:09;6.65;;;3.58;;
29280;SDS011;25048;49.590;11.026;2023-10-08T04:07:45;5.10;;;3.50;;
29280;SDS011;25048;49.590;11.026;2023-10-08T04:10:31;5.72;;;3.52;;
29280;SDS011;25048;49.590;11.026;2023-10-08T04:13:10;5.92;;;3.05;;
29280;SDS011;25048;49.590;11.026;2023-10-08T04:15:40;5.35;;;3.22;;
29280;SDS011;25048;49.590;11.026;2023-10-08T04:18:12;6.40;;;3.70;;
29280;SDS011;25048;49.590;11.026;2023-10-08T04:20:38;7.42;;;3.67;;
29280;SDS011;25048;49.590;11.026;2023-10-08T04:23:08;7.17;;;3.17;;
29280;SDS011;25048;49.590;11.026;2023-10-08T04:25:47;9.73;;;3.60;;
29280;SDS011;25048;49.590;11.026;2023-10-08T04:28:20;5.55;;;3.47;;
29280;SDS011;25048;49.590;11.026;2023-10-08T04:30:48;7.08;;;3.27;;
29280;SDS011;25048;49.590;11.026;2023-10-08T04:33:16;14.75;;;4.95;;
29280;SDS011;25048;49.590;11.026;2023-10-08T04:35:45;7.97;;;3.08;;
29280;SDS011;25048;49.590;11.026;2023-10-08T04:38:19;7.37;;;3.50;;
29280;SDS011;25048;49.590;11.026;2023-10-08T04:40:51;5.70;;;2.90;;
29280;SDS011;25048;49.590;11.026;2023-10-08T04:43:24;7.80;;;3.20;;
29280;SDS011;25048;49.590;11.026;2023-10-08T04:45:56;6.62;;;2.92;;
29280;SDS011;25048;49.590;11.026;2023-10-08T04:48:24;7.25;;;3.62;;
29280;SDS011;25048;49.590;11.026;2023-10-08T04:50:57;5.62;;;2.90;;
29280;SDS011;25048;49.590;11.026;2023-10-08T04:53:28;7.17;;;2.98;;
29280;SDS011;25048;49.590;11.026;2023-10-08T04:56:05;10.98;;;3.20;;
29280;SDS011;25048;49.590;11.026;2023-10-08T04:58:35;10.10;;;3.15;;
29280;SDS011;25048;49.590;11.026;2023-10-08T05:01:04;6.92;;;3.20;;
29280;SDS011;25048;49.590;11.026;2023-10-08T05:03:44;4.92;;;3.15;;
29280;SDS011;25048;49.590;11.026;2023-10-08T05:06:25;4.85;;;2.65;;
29280;SDS011;25048;49.590;11.026;2023-10-08T05:09:02;5.40;;;3.20;;
29280;SDS011;25048;49.590;11.026;2023-10-08T05:11:39;5.90;;;3.00;;
29280;SDS011;25048;49.590;11.026;2023-10-08T05:14:15;6.08;;;3.20;;
29280;SDS011;25048;49.590;11.026;2023-10-08T05:16:45;7.45;;;3.35;;
29280;SDS011;25048;49.590;11.026;2023-10-08T05:19:14;8.28;;;3.20;;
29280;SDS011;25048;49.590;11.026;2023-10-08T05:22:01;5.10;;;2.80;;
29280;SDS011;25048;49.590;11.026;2023-10-08T05:24:30;10.35;;;3.35;;
29280;SDS011;25048;49.590;11.026;2023-10-08T05:26:59;6.58;;;2.92;;
29280;SDS011;25048;49.590;11.026;2023-10-08T05:29:29;6.53;;;3.00;;
29280;SDS011;25048;49.590;11.026;2023-10-08T05:32:14;5.03;;;2.80;;
29280;SDS011;25048;49.590;11.026;2023-10-08T05:34:58;7.42;;;3.22;;
29280;SDS011;25048;49.590;11.026;2023-10-08T05:37:45;4.78;;;2.72;;
29280;SDS011;25048;49.590;11.026;2023-10-08T05:40:14;6.08;;;2.92;;
29280;SDS011;25048;49.590;11.026;2023-10-08T05:42:46;7.15;;;3.05;;
29280;SDS011;25048;49.590;11.026;2023-10-08T05:45:15;5.70;;;3.05;;
29280;SDS011;25048;49.590;11.026;2023-10-08T05:47:45;7.17;;;3.55;;
29280;SDS011;25048;49.590;11.026;2023-10-08T05:50:19;4.22;;;2.52;;
29280;SDS011;25048;49.590;11.026;2023-10-08T05:52:49;11.30;;;4.03;;
29280;SDS011;25048;49.590;11.026;2023-10-08T05:55:30;5.55;;;2.87;;
29280;SDS011;25048;49.590;11.026;2023-10-08T05:58:03;7.47;;;3.70;;
29280;SDS011;25048;49.590;11.026;2023-10-08T06:00:46;8.85;;;3.00;;
29280;SDS011;25048;49.590;11.026;2023-10-08T06:03:19;5.47;;;3.05;;
29280;SDS011;25048;49.590;11.026;2023-10-08T06:06:05;7.00;;;3.52;;
29280;SDS011;25048;49.590;11.026;2023-10-08T06:08:44;5.35;;;3.10;;
29280;SDS011;25048;49.590;11.026;2023-10-08T06:11:19;7.17;;;3.75;;
29280;SDS011;25048;49.590;11.026;2023-10-08T06:14:07;4.47;;;2.83;;
29280;SDS011;25048;49.590;11.026;2023-10-08T06:16:47;7.53;;;3.37;;
29280;SDS011;25048;49.590;11.026;2023-10-08T06:19:13;7.15;;;3.30;;
29280;SDS011;25048;49.590;11.026;2023-10-08T06:21:41;6.60;;;2.72;;
29280;SDS011;25048;49.590;11.026;2023-10-08T06:24:10;6.58;;;3.65;;
29280;SDS011;25048;49.590;11.026;2023-10-08T06:26:40;10.55;;;3.50;;
29280;SDS011;25048;49.590;11.026;2023-10-08T06:29:12;7.83;;;2.98;;
29280;SDS011;25048;49.590;11.026;2023-10-08T06:31:47;6.75;;;3.50;;
29280;SDS011;25048;49.590;11.026;2023-10-08T06:34:16;7.35;;;3.08;;
29280;SDS011;25048;49.590;11.026;2023-10-08T06:36:46;4.03;;;2.83;;
29280;SDS011;25048;49.590;11.026;2023-10-08T06:39:15;7.20;;;3.33;;
29280;SDS011;25048;49.590;11.026;2023-10-08T06:41:44;8.05;;;3.08;;
29280;SDS011;25048;49.590;11.026;2023-10-08T06:44:12;13.20;;;3.72;;
29280;SDS011;25048;49.590;11.026;2023-10-08T06:46:41;6.90;;;3.60;;
29280;SDS011;25048;49.590;11.026;2023-10-08T06:49:09;10.28;;;3.50;;
29280;SDS011;25048;49.590;11.026;2023-10-08T06:51:39;7.37;;;3.35;;
29280;SDS011;25048;49.590;11.026;2023-10-08T06:54:09;7.65;;;3.75;;
29280;SDS011;25048;49.590;11.026;2023-10-08T06:56:38;6.95;;;2.95;;
29280;SDS011;25048;49.590;11.026;2023-10-08T06:59:07;8.03;;;3.27;;
29280;SDS011;25048;49.590;11.026;2023-10-08T07:01:35;5.78;;;2.62;;
29280;SDS011;25048;49.590;11.026;2023-10-08T07:04:06;7.05;;;3.12;;
29280;SDS011;25048;49.590;11.026;2023-10-08T07:06:35;10.08;;;3.62;;
29280;SDS011;25048;49.590;11.026;2023-10-08T07:09:03;6.60;;;3.22;;
29280;SDS011;25048;49.590;11.026;2023-10-08T07:11:36;7.75;;;4.25;;
29280;SDS011;25048;49.590;11.026;2023-10-08T07:14:04;9.15;;;3.75;;
29280;SDS011;25048;49.590;11.026;2023-10-08T07:16:31;7.03;;;3.40;;
29280;SDS011;25048;49.590;11.026;2023-10-08T07:19:00;7.70;;;3.15;;
29280;SDS011;25048;49.590;11.026;2023-10-08T07:21:29;9.60;;;3.55;;
29280;SDS011;25048;49.590;11.026;2023-10-08T07:23:58;5.15;;;2.92;;
29280;SDS011;25048;49.590;11.026;2023-10-08T07:26:26;8.48;;;4.03;;
29280;SDS011;25048;49.590;11.026;2023-10-08T07:28:56;8.05;;;3.52;;
29280;SDS011;25048;49.590;11.026;2023-10-08T07:31:24;9.25;;;3.08;;
29280;SDS011;25048;49.590;11.026;2023-10-08T07:33:54;12.53;;;3.90;;
29280;SDS011;25048;49.590;11.026;2023-10-08T07:36:26;7.15;;;3.20;;
29280;SDS011;25048;49.590;11.026;2023-10-08T07:38:55;9.15;;;3.22;;
29280;SDS011;25048;49.590;11.026;2023-10-08T07:41:22;5.80;;;3.10;;
29280;SDS011;25048;49.590;11.026;2023-10-08T07:43:50;14.03;;;4.03;;
29280;SDS011;25048;49.590;11.026;2023-10-08T07:46:24;8.33;;;3.90;;
29280;SDS011;25048;49.590;11.026;2023-10-08T07:48:56;8.43;;;3.10;;
29280;SDS011;25048;49.590;11.026;2023-10-08T07:51:26;10.35;;;3.30;;
29280;SDS011;25048;49.590;11.026;2023-10-08T07:53:53;4.90;;;2.70;;
29280;SDS011;25048;49.590;11.026;2023-10-08T07:56:23;8.35;;;3.33;;
29280;SDS011;25048;49.590;11.026;2023-10-08T07:58:52;7.85;;;3.17;;
29280;SDS011;25048;49.590;11.026;2023-10-08T08:01:23;9.65;;;3.00;;
29280;SDS011;25048;49.590;11.026;2023-10-08T08:03:51;6.30;;;3.25;;
29280;SDS011;25048;49.590;11.026;2023-10-08T08:06:19;6.92;;;3.02;;
29280;SDS011;25048;49.590;11.026;2023-10-08T08:08:48;7.97;;;3.42;;
29280;SDS011;25048;49.590;11.026;2023-10-08T08:11:17;9.33;;;3.35;;
29280;SDS011;25048;49.590;11.026;2023-10-08T08:13:45;6.42;;;2.85;;
29280;SDS011;25048;49.590;11.026;2023-10-08T08:16:13;7.58;;;2.98;;
29280;SDS011;25048;49.590;11.026;2023-10-08T08:18:44;10.50;;;3.60;;
29280;SDS011;25048;49.590;11.026;2023-10-08T08:21:14;7.72;;;3.40;;
29280;SDS011;25048;49.590;11.026;2023-10-08T08:23:44;8.38;;;3.92;;
29280;SDS011;25048;49.590;11.026;2023-10-08T08:26:16;9.33;;;3.95;;
29280;SDS011;25048;49.590;11.026;2023-10-08T08:28:58;9.90;;;3.55;;
29280;SDS011;25048;49.590;11.026;2023-10-08T08:31:28;10.82;;;3.75;;
29280;SDS011;25048;49.590;11.026;2023-10-08T08:33:58;10.48;;;3.17;;
29280;SDS011;25048;49.590;11.026;2023-10-08T08:36:28;7.83;;;2.95;;
29280;SDS011;25048;49.590;11.026;2023-10-08T08:38:58;7.92;;;3.30;;
29280;SDS011;25048;49.590;11.026;2023-10-08T08:41:26;5.92;;;2.85;;
29280;SDS011;25048;49.590;11.026;2023-10-08T08:43:54;8.38;;;4.17;;
29280;SDS011;25048;49.590;11.026;2023-10-08T08:46:30;7.08;;;2.65;;
29280;SDS011;25048;49.590;11.026;2023-10-08T08:48:54;7.78;;;3.30;;
29280;SDS011;25048;49.590;11.026;2023-10-08T08:51:24;8.00;;;3.72;;
29280;SDS011;25048;49.590;11.026;2023-10-08T08:53:51;10.63;;;3.10;;
29280;SDS011;25048;49.590;11.026;2023-10-08T08:56:19;9.90;;;3.75;;
29280;SDS011;25048;49.590;11.026;2023-10-08T08:58:49;6.08;;;2.85;;
29280;SDS011;25048;49.590;11.026;2023-10-08T09:01:16;10.28;;;3.50;;
29280;SDS011;25048;49.590;11.026;2023-10-08T09:03:45;8.20;;;3.70;;
29280;SDS011;25048;49.590;11.026;2023-10-08T09:06:14;6.17;;;3.50;;
29280;SDS011;25048;49.590;11.026;2023-10-08T09:08:42;9.20;;;2.90;;
29280;SDS011;25048;49.590;11.026;2023-10-08T09:11:15;15.40;;;4.45;;
29280;SDS011;25048;49.590;11.026;2023-10-08T09:13:42;7.78;;;3.62;;
29280;SDS011;25048;49.590;11.026;2023-10-08T09:16:14;9.05;;;3.20;;
29280;SDS011;25048;49.590;11.026;2023-10-08T09:18:43;15.72;;;3.52;;
29280;SDS011;25048;49.590;11.026;2023-10-08T09:21:11;8.58;;;3.08;;
29280;SDS011;25048;49.590;11.026;2023-10-08T09:23:49;11.00;;;3.77;;
29280;SDS011;25048;49.590;11.026;2023-10-08T09:26:10;9.63;;;4.03;;
29280;SDS011;25048;49.590;11.026;2023-10-08T09:28:39;7.85;;;3.67;;
29280;SDS011;25048;49.590;11.026;2023-10-08T09:31:10;8.15;;;3.70;;
29280;SDS011;25048;49.590;11.026;2023-10-08T09:33:38;9.95;;;3.80;;
29280;SDS011;25048;49.590;11.026;2023-10-08T09:36:07;8.25;;;3.27;;
29280;SDS011;25048;49.590;11.026;2023-10-08T09:38:37;7.33;;;3.67;;
29280;SDS011;25048;49.590;11.026;2023-10-08T09:41:05;9.48;;;3.62;;
29280;SDS011;25048;49.590;11.026;2023-10-08T09:43:34;7.72;;;3.25;;
29280;SDS011;25048;49.590;11.026;2023-10-08T09:46:18;9.60;;;3.60;;
29280;SDS011;25048;49.590;11.026;2023-10-08T09:48:51;7.53;;;3.67;;
29280;SDS011;25048;49.590;11.026;2023-10-08T09:51:21;8.55;;;3.65;;
29280;SDS011;25048;49.590;11.026;2023-10-08T09:54:07;12.63;;;3.42;;
29280;SDS011;25048;49.590;11.026;2023-10-08T09:56:55;5.62;;;3.05;;
29280;SDS011;25048;49.590;11.026;2023-10-08T09:59:25;14.10;;;4.10;;
29280;SDS011;25048;49.590;11.026;2023-10-08T10:01:55;10.20;;;3.10;;
29280;SDS011;25048;49.590;11.026;2023-10-08T10:04:29;6.83;;;3.25;;
29280;SDS011;25048;49.590;11.026;2023-10-08T10:06:58;7.00;;;3.50;;
29280;SDS011;25048;49.590;11.026;2023-10-08T10:09:28;7.12;;;3.75;;
29280;SDS011;25048;49.590;11.026;2023-10-08T10:11:59;7.58;;;3.83;;
29280;SDS011;25048;49.590;11.026;2023-10-08T10:14:27;12.30;;;4.10;;
29280;SDS011;25048;49.590;11.026;2023-10-08T10:20:01;12.50;;;4.00;;
29280;SDS011;25048;49.590;11.026;2023-10-08T10:22:31;7.95;;;3.42;;
29280;SDS011;25048;49.590;11.026;2023-10-08T10:25:01;10.68;;;3.60;;
29280;SDS011;25048;49.590;11.026;2023-10-08T10:30:25;9.08;;;3.60;;
29280;SDS011;25048;49.590;11.026;2023-10-08T10:32:54;9.95;;;3.83;;
29280;SDS011;25048;49.590;11.026;2023-10-08T10:35:23;8.20;;;3.60;;
29280;SDS011;25048;49.590;11.026;2023-10-08T10:37:52;7.87;;;3.62;;
29280;SDS011;25048;49.590;11.026;2023-10-08T10:40:21;13.18;;;3.90;;
29280;SDS011;25048;49.590;11.026;2023-10-08T10:42:57;8.03;;;3.90;;
29280;SDS011;25048;49.590;11.026;2023-10-08T10:45:29;9.33;;;3.60;;
29280;SDS011;25048;49.590;11.026;2023-10-08T10:48:04;9.53;;;3.27;;
29280;SDS011;25048;49.590;11.026;2023-10-08T10:50:52;11.18;;;3.70;;
29280;SDS011;25048;49.590;11.026;2023-10-08T10:53:39;8.73;;;3.70;;
29280;SDS011;25048;49.590;11.026;2023-10-08T10:56:21;8.68;;;3.77;;
29280;SDS011;25048;49.590;11.026;2023-10-08T10:58:51;7.83;;;3.60;;
29280;SDS011;25048;49.590;11.026;2023-10-08T11:01:23;13.05;;;3.35;;
29280;SDS011;25048;49.590;11.026;2023-10-08T11:03:56;11.70;;;4.25;;
29280;SDS011;25048;49.590;11.026;2023-10-08T11:06:23;12.05;;;4.20;;
29280;SDS011;25048;49.590;11.026;2023-10-08T11:08:52;10.38;;;4.05;;
29280;SDS011;25048;49.590;11.026;2023-10-08T11:11:28;7.58;;;3.70;;
29280;SDS011;25048;49.590;11.026;2023-10-08T11:13:56;23.45;;;4.60;;
29280;SDS011;25048;49.590;11.026;2023-10-08T11:16:26;8.80;;;3.87;;
29280;SDS011;25048;49.590;11.026;2023-10-08T11:18:55;10.45;;;3.72;;
29280;SDS011;25048;49.590;11.026;2023-10-08T11:21:27;12.93;;;4.72;;
29280;SDS011;25048;49.590;11.026;2023-10-08T11:23:56;9.85;;;3.40;;
29280;SDS011;25048;49.590;11.026;2023-10-08T11:26:34;8.45;;;3.77;;
29280;SDS011;25048;49.590;11.026;2023-10-08T11:29:01;14.25;;;3.75;;
29280;SDS011;25048;49.590;11.026;2023-10-08T11:31:29;6.90;;;3.40;;
29280;SDS011;25048;49.590;11.026;2023-10-08T11:33:59;7.42;;;3.45;;
29280;SDS011;25048;49.590;11.026;2023-10-08T11:36:30;7.97;;;3.87;;
29280;SDS011;25048;49.590;11.026;2023-10-08T11:39:08;7.97;;;3.45;;
29280;SDS011;25048;49.590;11.026;2023-10-08T11:41:39;13.65;;;4.22;;
29280;SDS011;25048;49.590;11.026;2023-10-08T11:44:16;8.60;;;4.03;;
29280;SDS011;25048;49.590;11.026;2023-10-08T11:46:48;10.00;;;3.85;;
29280;SDS011;25048;49.590;11.026;2023-10-08T11:49:19;8.30;;;3.65;;
29280;SDS011;25048;49.590;11.026;2023-10-08T11:51:48;8.13;;;3.42;;
29280;SDS011;25048;49.590;11.026;2023-10-08T11:54:17;12.28;;;4.62;;
29280;SDS011;25048;49.590;11.026;2023-10-08T11:56:46;10.93;;;4.15;;
29280;SDS011;25048;49.590;11.026;2023-10-08T11:59:13;8.30;;;3.58;;
29280;SDS011;25048;49.590;11.026;2023-10-08T12:01:42;9.23;;;3.10;;
29280;SDS011;25048;49.590;11.026;2023-10-08T12:04:12;12.45;;;3.30;;
29280;SDS011;25048;49.590;11.026;2023-10-08T12:06:41;9.90;;;4.03;;
29280;SDS011;25048;49.590;11.026;2023-10-08T12:09:16;9.58;;;3.77;;
29280;SDS011;25048;49.590;11.026;2023-10-08T12:11:45;7.62;;;3.67;;
29280;SDS011;25048;49.590;11.026;2023-10-08T12:14:13;12.60;;;4.53;;
29280;SDS011;25048;49.590;11.026;2023-10-08T12:16:41;9.23;;;4.00;;
29280;SDS011;25048;49.590;11.026;2023-10-08T12:19:10;15.98;;;4.72;;
29280;SDS011;25048;49.590;11.026;2023-10-08T12:21:44;9.88;;;3.85;;
29280;SDS011;25048;49.590;11.026;2023-10-08T12:24:15;6.85;;;3.47;;
29280;SDS011;25048;49.590;11.026;2023-10-08T12:26:43;9.43;;;3.45;;
29280;SDS011;25048;49.590;11.026;2023-10-08T12:29:13;6.65;;;3.87;;
29280;SDS011;25048;49.590;11.026;2023-10-08T12:31:42;8.85;;;4.22;;
29280;SDS011;25048;49.590;11.026;2023-10-08T12:34:12;12.25;;;4.00;;
29280;SDS011;25048;49.590;11.026;2023-10-08T12:36:40;9.55;;;4.47;;
29280;SDS011;25048;49.590;11.026;2023-10-08T12:39:08;11.18;;;4.95;;
29280;SDS011;25048;49.590;11.026;2023-10-08T12:41:37;10.08;;;4.00;;
29280;SDS011;25048;49.590;11.026;2023-10-08T12:44:04;8.40;;;4.70;;
29280;SDS011;25048;49.590;11.026;2023-10-08T12:46:35;8.00;;;3.75;;
29280;SDS011;25048;49.590;11.026;2023-10-08T12:49:02;7.20;;;3.52;;
29280;SDS011;25048;49.590;11.026;2023-10-08T12:51:30;8.50;;;3.67;;
29280;SDS011;25048;49.590;11.026;2023-10-08T12:53:59;9.55;;;3.62;;
29280;SDS011;25048;49.590;11.026;2023-10-08T12:56:35;10.38;;;4.33;;
29280;SDS011;25048;49.590;11.026;2023-10-08T12:59:07;13.30;;;4.25;;
29280;SDS011;25048;49.590;11.026;2023-10-08T13:01:36;10.88;;;4.10;;
29280;SDS011;25048;49.590;11.026;2023-10-08T13:04:05;14.65;;;4.15;;
29280;SDS011;25048;49.590;11.026;2023-10-08T13:06:34;12.07;;;4.00;;
29280;SDS011;25048;49.590;11.026;2023-10-08T13:09:03;10.40;;;3.80;;
29280;SDS011;25048;49.590;11.026;2023-10-08T13:11:40;8.45;;;3.87;;
29280;SDS011;25048;49.590;11.026;2023-10-08T13:14:08;13.13;;;3.50;;
29280;SDS011;25048;49.590;11.026;2023-10-08T13:16:37;11.57;;;4.53;;
29280;SDS011;25048;49.590;11.026;2023-10-08T13:19:04;10.20;;;4.58;;
29280;SDS011;25048;49.590;11.026;2023-10-08T13:21:34;9.65;;;3.70;;
29280;SDS011;25048;49.590;11.026;2023-10-08T13:24:03;10.38;;;4.47;;
29280;SDS011;25048;49.590;11.026;2023-10-08T13:26:32;8.83;;;3.55;;
29280;SDS011;25048;49.590;11.026;2023-10-08T13:29:00;9.13;;;3.80;;
29280;SDS011;25048;49.590;11.026;2023-10-08T13:31:27;8.40;;;3.80;;
29280;SDS011;25048;49.590;11.026;2023-10-08T13:33:55;10.58;;;4.03;;
29280;SDS011;25048;49.590;11.026;2023-10-08T13:36:23;9.68;;;4.05;;
29280;SDS011;25048;49.590;11.026;2023-10-08T13:38:50;10.20;;;4.15;;
29280;SDS011;25048;49.590;11.026;2023-10-08T13:41:18;10.95;;;4.50;;
29280;SDS011;25048;49.590;11.026;2023-10-08T13:43:47;13.68;;;4.97;;
29280;SDS011;25048;49.590;11.026;2023-10-08T13:46:17;8.53;;;3.90;;
29280;SDS011;25048;49.590;11.026;2023-10-08T13:48:48;8.55;;;3.85;;
29280;SDS011;25048;49.590;11.026;2023-10-08T13:51:17;7.92;;;3.35;;
29280;SDS011;25048;49.590;11.026;2023-10-08T13:53:49;6.25;;;3.22;;
29280;SDS011;25048;49.590;11.026;2023-10-08T13:56:23;7.60;;;2.98;;
29280;SDS011;25048;49.590;11.026;2023-10-08T13:58:49;12.05;;;3.05;;
29280;SDS011;25048;49.590;11.026;2023-10-08T14:01:18;9.65;;;3.12;;
29280;SDS011;25048;49.590;11.026;2023-10-08T14:03:47;6.20;;;2.85;;
29280;SDS011;25048;49.590;11.026;2023-10-08T14:06:17;8.05;;;2.72;;
29280;SDS011;25048;49.590;11.026;2023-10-08T14:08:46;7.55;;;3.02;;
29280;SDS011;25048;49.590;11.026;2023-10-08T14:11:21;6.87;;;3.08;;
29280;SDS011;25048;49.590;11.026;2023-10-08T14:13:51;6.45;;;2.98;;
29280;SDS011;25048;49.590;11.026;2023-10-08T14:16:19;6.92;;;3.30;;
29280;SDS011;25048;49.590;11.026;2023-10-08T14:18:52;12.95;;;3.20;;
29280;SDS011;25048;49.590;11.026;2023-10-08T14:21:20;7.15;;;2.83;;
29280;SDS011;25048;49.590;11.026;2023-10-08T14:23:53;4.95;;;2.62;;
29280;SDS011;25048;49.590;11.026;2023-10-08T14:26:22;7.12;;;2.33;;
29280;SDS011;25048;49.590;11.026;2023-10-08T14:28:51;4.10;;;2.22;;
29280;SDS011;25048;49.590;11.026;2023-10-08T14:31:23;6.83;;;2.40;;
29280;SDS011;25048;49.590;11.026;2023-10-08T14:33:52;5.00;;;2.10;;
29280;SDS011;25048;49.590;11.026;2023-10-08T14:36:24;5.45;;;2.20;;
29280;SDS011;25048;49.590;11.026;2023-10-08T14:39:10;7.17;;;2.25;;
29280;SDS011;25048;49.590;11.026;2023-10-08T14:41:55;10.55;;;2.35;;
29280;SDS011;25048;49.590;11.026;2023-10-08T14:44:40;3.25;;;2.20;;
29280;SDS011;25048;49.590;11.026;2023-10-08T14:47:08;5.45;;;2.22;;
29280;SDS011;25048;49.590;11.026;2023-10-08T14:49:35;6.40;;;2.22;;
29280;SDS011;25048;49.590;11.026;2023-10-08T14:52:04;9.73;;;2.47;;
29280;SDS011;25048;49.590;11.026;2023-10-08T14:54:32;5.00;;;2.35;;
29280;SDS011;25048;49.590;11.026;2023-10-08T14:56:59;4.87;;;2.15;;
29280;SDS011;25048;49.590;11.026;2023-10-08T14:59:28;5.40;;;2.05;;
29280;SDS011;25048;49.590;11.026;2023-10-08T15:01:57;4.50;;;1.87;;
29280;SDS011;25048;49.590;11.026;2023-10-08T15:04:25;3.52;;;2.20;;
29280;SDS011;25048;49.590;11.026;2023-10-08T15:06:54;5.05;;;2.10;;
29280;SDS011;25048;49.590;11.026;2023-10-08T15:09:24;10.18;;;2.47;;